Aérodrome :
LOGIN :

S'inscrire | Disclaimer

   EN    FR    IT 

 










Légende :    VFR   VFR Marginal   IFR   IFR Intensif   IFR Très Intensif
Visi : 
Plafond : 
>= 8 km
>= 3000ft
5 à 8 km
1000 à 3000 ft
1500m à 5 km
500 à 1000 ft
800 à 1500m
200 à 500 ft
< 800m
< 200 ft
Symboles :   Orages  Brouillard  Fortes neiges  Fortes précipitations  Vent > 20 kt
SIGMETs :   Divers  Orages  Givrage  Turbulence  Onde Orograph.  Cendres Volcan.






- Altitude de l'aérodrome : 863 ft
- Code IATA : ZAZ


LEZG - Zaragoza Aragon

DERNIER METAR :
  • 041100Z 30016KT CAVOK 26/12 Q1016

METARs EXPIRÉS :
  • 041030Z 31017KT 280V340 CAVOK 25/12 Q1016
  • 041000Z 30017KT 270V340 CAVOK 24/13 Q1017
  • 040930Z 30018KT 270V340 9999 FEW040 23/12 Q1017
  • 040900Z 31019KT 280V340 9999 FEW040 22/12 Q1017
  • 040830Z 31016KT 280V340 9999 FEW040 22/12 Q1017

TAF TAF LEZG
Valide du 04 à 06h jusqu'au 05 à 06h UTC


040500Z 0406/0506 30018KT CAVOK TX31/0415Z TN16/0406Z



MET'MAP, la Météo Aéronautique d'un coup d'oeil ! - Copyright ORBIFLY Décembre 2007 - Disclaimer

ORBIFLY MET'MAP TEAM :

Programmation & Développement : Alexandra Zaïnal
Sur une idée originale de : Baudouin d'Aumeries
Assistance à la programmation : Marc-Olivier Méhu
Soutien technique & logistique : Manuel Goepfert

Contact : metmap@orbifly.com




SOURCES & CREDITS :

   NOAA